createdAt,value
2023-05-22T00:00:38.916Z,0.00
2023-05-22T00:01:38.671Z,0.00
2023-05-22T00:02:38.944Z,0.00
2023-05-22T00:03:38.661Z,0.00
2023-05-22T00:04:38.693Z,0.00
2023-05-22T00:05:38.652Z,0.00
2023-05-22T00:06:38.643Z,0.00
2023-05-22T00:07:38.607Z,0.00
2023-05-22T00:08:38.625Z,0.00
2023-05-22T00:09:38.593Z,0.00
2023-05-22T00:10:38.981Z,0.00
2023-05-22T00:11:38.563Z,0.00
2023-05-22T00:12:38.608Z,0.00
2023-05-22T00:13:38.553Z,0.00
2023-05-22T00:14:38.567Z,0.00
2023-05-22T00:15:38.551Z,0.00
2023-05-22T00:16:38.540Z,0.00
2023-05-22T00:17:38.531Z,0.00
2023-05-22T00:18:38.504Z,0.00
2023-05-22T00:19:38.521Z,0.00
2023-05-22T00:20:38.825Z,0.00
2023-05-22T00:21:38.461Z,0.00
2023-05-22T00:22:38.474Z,0.00
2023-05-22T00:23:38.433Z,0.00
2023-05-22T00:24:38.436Z,0.00
2023-05-22T00:25:38.407Z,0.00
2023-05-22T00:26:38.453Z,0.00
2023-05-22T00:27:38.394Z,0.00
2023-05-22T00:28:38.423Z,0.00
2023-05-22T00:29:38.372Z,0.00
2023-05-22T00:30:38.679Z,0.00
2023-05-22T00:31:38.366Z,0.00
2023-05-22T00:32:38.393Z,0.00
2023-05-22T00:33:38.346Z,0.00
2023-05-22T00:34:38.447Z,0.00
2023-05-22T00:35:38.316Z,0.00
2023-05-22T00:36:38.325Z,0.00
2023-05-22T00:37:38.281Z,0.00
2023-05-22T00:38:38.321Z,0.00
2023-05-22T00:39:38.273Z,0.00
2023-05-22T00:40:38.472Z,0.00
2023-05-22T00:41:38.246Z,0.00
2023-05-22T00:42:38.254Z,0.00
2023-05-22T00:43:38.226Z,0.00
2023-05-22T00:44:38.224Z,0.00
2023-05-22T00:45:38.191Z,0.00
2023-05-22T00:46:38.243Z,0.00
2023-05-22T00:47:38.226Z,0.00
2023-05-22T00:48:38.201Z,0.00
2023-05-22T00:49:38.182Z,0.00
2023-05-22T00:50:38.511Z,0.00
2023-05-22T00:51:38.138Z,0.00
2023-05-22T00:52:38.151Z,0.00
2023-05-22T00:53:38.154Z,0.00
2023-05-22T00:54:38.129Z,0.00
2023-05-22T00:55:38.126Z,0.00
2023-05-22T00:56:38.079Z,0.00
2023-05-22T00:57:38.085Z,0.00
2023-05-22T00:58:38.053Z,0.00
2023-05-22T00:59:38.075Z,0.00
2023-05-22T01:00:38.371Z,0.00
2023-05-22T01:01:38.116Z,0.00
2023-05-22T01:02:38.102Z,0.00
2023-05-22T01:03:38.101Z,0.00
2023-05-22T01:04:37.999Z,0.00
2023-05-22T01:05:37.998Z,0.00
2023-05-22T01:06:37.971Z,0.00
2023-05-22T01:07:37.982Z,0.00
2023-05-22T01:08:37.968Z,0.00
2023-05-22T01:09:37.965Z,0.00
2023-05-22T01:10:38.168Z,0.00
2023-05-22T01:11:37.936Z,0.00
2023-05-22T01:12:37.904Z,0.00
2023-05-22T01:13:37.911Z,0.00
2023-05-22T01:14:37.893Z,0.00
2023-05-22T01:15:37.889Z,0.00
2023-05-22T01:16:37.919Z,0.00
2023-05-22T01:17:38.026Z,0.00
2023-05-22T01:18:37.850Z,0.00
2023-05-22T01:19:37.851Z,0.00
2023-05-22T01:20:38.116Z,0.00
2023-05-22T01:21:37.856Z,0.00
2023-05-22T01:22:37.800Z,0.00
2023-05-22T01:23:37.830Z,0.00
2023-05-22T01:24:37.782Z,0.00
2023-05-22T01:25:37.800Z,0.00
2023-05-22T01:26:37.754Z,0.00
2023-05-22T01:27:37.767Z,0.00
2023-05-22T01:28:37.747Z,0.00
2023-05-22T01:29:37.741Z,0.00
2023-05-22T01:30:37.865Z,0.00
2023-05-22T01:31:37.732Z,0.00
2023-05-22T01:32:37.722Z,0.00
2023-05-22T01:33:37.741Z,0.00
2023-05-22T01:34:37.677Z,0.00
2023-05-22T01:35:37.690Z,0.00
2023-05-22T01:36:37.656Z,0.00
2023-05-22T01:37:37.658Z,0.00
2023-05-22T01:38:37.638Z,0.00
2023-05-22T01:39:37.653Z,0.00
2023-05-22T01:40:37.858Z,0.00
2023-05-22T01:41:37.630Z,0.00
2023-05-22T01:42:37.584Z,0.00
2023-05-22T01:43:37.614Z,0.00
2023-05-22T01:44:37.561Z,0.00
2023-05-22T01:45:37.618Z,0.00
2023-05-22T01:46:37.537Z,0.00
2023-05-22T01:47:37.632Z,0.00
2023-05-22T01:48:37.525Z,0.00
2023-05-22T01:49:37.550Z,0.00
2023-05-22T01:50:37.880Z,0.00
2023-05-22T01:51:37.521Z,0.00
2023-05-22T01:52:37.483Z,0.00
2023-05-22T01:53:37.481Z,0.00
2023-05-22T01:54:37.472Z,0.00
2023-05-22T01:55:37.462Z,0.00
2023-05-22T01:56:37.433Z,0.00
2023-05-22T01:57:37.460Z,0.00
2023-05-22T01:58:37.435Z,0.00
2023-05-22T01:59:37.448Z,0.00
2023-05-22T02:00:37.500Z,0.00
2023-05-22T02:01:37.451Z,0.00
2023-05-22T02:02:37.429Z,0.00
2023-05-22T02:03:37.401Z,0.00
2023-05-22T02:04:37.382Z,0.00
2023-05-22T02:05:37.385Z,0.00
2023-05-22T02:06:37.329Z,0.00
2023-05-22T02:07:37.355Z,0.00
2023-05-22T02:08:37.308Z,0.00
2023-05-22T02:09:37.331Z,0.00
2023-05-22T02:10:37.488Z,0.00
2023-05-22T02:11:37.322Z,0.00
2023-05-22T02:12:37.288Z,0.00
2023-05-22T02:13:37.271Z,0.00
2023-05-22T02:14:37.256Z,0.00
2023-05-22T02:15:37.287Z,0.00
2023-05-22T02:16:37.228Z,0.00
2023-05-22T02:17:37.239Z,0.00
2023-05-22T02:18:37.212Z,0.00
2023-05-22T02:19:37.270Z,0.00
2023-05-22T02:20:37.342Z,0.00
2023-05-22T02:21:37.200Z,0.00
2023-05-22T02:22:37.161Z,0.00
2023-05-22T02:23:37.165Z,0.00
2023-05-22T02:24:37.137Z,0.00
2023-05-22T02:25:37.151Z,0.00
2023-05-22T02:26:37.128Z,0.00
2023-05-22T02:27:37.135Z,0.00
2023-05-22T02:28:37.093Z,0.00
2023-05-22T02:29:37.130Z,0.00
2023-05-22T02:30:37.242Z,0.00
2023-05-22T02:31:37.141Z,0.00
2023-05-22T02:32:37.062Z,0.00
2023-05-22T02:33:37.072Z,0.00
2023-05-22T02:34:37.030Z,0.00
2023-05-22T02:35:37.040Z,0.00
2023-05-22T02:36:37.010Z,0.00
2023-05-22T02:37:37.030Z,0.00
2023-05-22T02:38:36.986Z,0.00
2023-05-22T02:39:36.993Z,0.00
2023-05-22T02:40:37.125Z,0.00
2023-05-22T02:41:36.986Z,0.00
2023-05-22T02:42:36.946Z,0.00
2023-05-22T02:43:36.975Z,0.00
2023-05-22T02:44:36.941Z,0.00
2023-05-22T02:45:36.942Z,0.00
2023-05-22T02:46:36.931Z,0.00
2023-05-22T02:47:36.920Z,0.00
2023-05-22T02:48:36.890Z,0.00
2023-05-22T02:49:36.898Z,0.00
2023-05-22T02:50:35.863Z,0.00
2023-05-22T02:51:36.880Z,0.00
2023-05-22T02:52:36.847Z,0.00
2023-05-22T02:53:36.854Z,0.00
2023-05-22T02:54:36.773Z,1.00
2023-05-22T02:55:36.833Z,0.00
2023-05-22T02:56:36.784Z,0.00
2023-05-22T02:57:36.771Z,1.00
2023-05-22T02:58:36.729Z,1.00
2023-05-22T02:59:36.744Z,1.00
2023-05-22T03:00:36.759Z,0.00
2023-05-22T03:01:36.818Z,0.00
2023-05-22T03:02:36.956Z,2.00
2023-05-22T03:03:36.801Z,1.00
2023-05-22T03:04:36.666Z,1.00
2023-05-22T03:05:36.736Z,0.00
2023-05-22T03:06:36.659Z,2.00
2023-05-22T03:07:36.667Z,1.00
2023-05-22T03:08:36.611Z,1.00
2023-05-22T03:09:36.615Z,4.00
2023-05-22T03:10:36.914Z,2.00
2023-05-22T03:11:36.606Z,3.00
2023-05-22T03:12:36.596Z,3.00
2023-05-22T03:13:36.599Z,1.00
2023-05-22T03:14:36.558Z,2.00
2023-05-22T03:15:36.563Z,2.00
2023-05-22T03:16:36.554Z,6.00
2023-05-22T03:17:36.559Z,3.00
2023-05-22T03:18:36.512Z,5.00
2023-05-22T03:19:36.534Z,4.00
2023-05-22T03:20:36.696Z,6.00
2023-05-22T03:21:36.506Z,6.00
2023-05-22T03:22:36.474Z,8.00
2023-05-22T03:23:36.471Z,7.00
2023-05-22T03:24:36.438Z,6.00
2023-05-22T03:25:36.455Z,6.00
2023-05-22T03:26:36.422Z,9.00
2023-05-22T03:27:36.436Z,9.00
2023-05-22T03:28:36.420Z,11.00
2023-05-22T03:29:36.426Z,11.00
2023-05-22T03:30:36.411Z,15.00
2023-05-22T03:31:36.382Z,11.00
2023-05-22T03:32:36.374Z,14.00
2023-05-22T03:33:36.456Z,14.00
2023-05-22T03:34:36.329Z,17.00
2023-05-22T03:35:36.343Z,18.00
2023-05-22T03:36:36.320Z,19.00
2023-05-22T03:37:36.331Z,23.00
2023-05-22T03:38:36.300Z,22.00
2023-05-22T03:39:36.319Z,21.00
2023-05-22T03:40:36.307Z,24.00
2023-05-22T03:41:36.274Z,24.00
2023-05-22T03:42:36.270Z,31.00
2023-05-22T03:43:36.268Z,31.00
2023-05-22T03:44:36.236Z,35.00
2023-05-22T03:45:36.281Z,39.00
2023-05-22T03:46:36.225Z,41.00
2023-05-22T03:47:36.240Z,38.00
2023-05-22T03:48:36.198Z,47.00
2023-05-22T03:49:36.216Z,46.00
2023-05-22T03:50:36.172Z,48.00
2023-05-22T03:51:36.168Z,52.00
2023-05-22T03:52:36.244Z,53.00
2023-05-22T03:53:36.152Z,60.00
2023-05-22T03:54:36.121Z,61.00
2023-05-22T03:55:36.139Z,63.00
2023-05-22T03:56:36.099Z,66.00
2023-05-22T03:57:36.114Z,66.00
2023-05-22T03:58:36.076Z,67.00
2023-05-22T03:59:36.105Z,79.00
2023-05-22T04:00:36.076Z,80.00
2023-05-22T04:01:36.087Z,74.00
2023-05-22T04:02:36.075Z,84.00
2023-05-22T04:03:36.087Z,85.00
2023-05-22T04:04:36.017Z,89.00
2023-05-22T04:05:36.085Z,92.00
2023-05-22T04:06:35.985Z,92.00
2023-05-22T04:07:36.011Z,94.00
2023-05-22T04:08:35.967Z,95.00
2023-05-22T04:09:35.972Z,97.00
2023-05-22T04:10:35.982Z,102.00
2023-05-22T04:11:35.976Z,105.00
2023-05-22T04:12:35.928Z,106.00
2023-05-22T04:13:35.938Z,114.00
2023-05-22T04:14:35.914Z,115.00
2023-05-22T04:15:35.940Z,115.00
2023-05-22T04:16:35.893Z,118.00
2023-05-22T04:17:35.964Z,126.00
2023-05-22T04:18:35.865Z,118.00
2023-05-22T04:19:35.908Z,128.00
2023-05-22T04:20:35.843Z,130.00
2023-05-22T04:21:35.861Z,135.00
2023-05-22T04:22:35.825Z,143.00
2023-05-22T04:23:35.833Z,141.00
2023-05-22T04:24:35.797Z,145.00
2023-05-22T04:25:35.805Z,144.00
2023-05-22T04:26:35.772Z,148.00
2023-05-22T04:27:35.803Z,149.00
2023-05-22T04:28:35.758Z,150.00
2023-05-22T04:29:35.789Z,161.00
2023-05-22T04:30:35.727Z,158.00
2023-05-22T04:31:35.842Z,159.00
2023-05-22T04:32:35.759Z,165.00
2023-05-22T04:33:35.715Z,163.00
2023-05-22T04:34:35.688Z,165.00
2023-05-22T04:35:35.716Z,172.00
2023-05-22T04:36:35.693Z,169.00
2023-05-22T04:37:35.705Z,176.00
2023-05-22T04:38:35.664Z,182.00
2023-05-22T04:39:35.681Z,184.00
2023-05-22T04:40:35.622Z,190.00
2023-05-22T04:41:35.646Z,191.00
2023-05-22T04:42:35.606Z,189.00
2023-05-22T04:43:35.632Z,190.00
2023-05-22T04:44:35.589Z,195.00
2023-05-22T04:45:35.607Z,200.00
2023-05-22T04:46:35.614Z,201.00
2023-05-22T04:47:35.579Z,204.00
2023-05-22T04:48:35.553Z,208.00
2023-05-22T04:49:35.584Z,212.00
2023-05-22T04:50:35.519Z,210.00
2023-05-22T04:51:35.529Z,211.00
2023-05-22T04:52:35.514Z,217.00
2023-05-22T04:53:35.502Z,215.00
2023-05-22T04:54:35.489Z,220.00
2023-05-22T04:55:35.527Z,222.00
2023-05-22T04:56:37.239Z,227.00
2023-05-22T04:57:35.477Z,228.00
2023-05-22T04:58:35.430Z,230.00
2023-05-22T04:59:35.481Z,230.00
2023-05-22T05:00:35.443Z,233.00
2023-05-22T05:01:35.479Z,233.00
2023-05-22T05:02:35.412Z,234.00
2023-05-22T05:03:35.464Z,235.00
2023-05-22T05:04:35.366Z,246.00
2023-05-22T05:05:35.390Z,245.00
2023-05-22T05:06:35.380Z,247.00
2023-05-22T05:07:35.367Z,247.00
2023-05-22T05:08:35.324Z,249.00
2023-05-22T05:09:35.311Z,256.00
2023-05-22T05:10:35.359Z,249.00
2023-05-22T05:11:35.315Z,252.00
2023-05-22T05:12:35.312Z,258.00
2023-05-22T05:13:35.280Z,257.00
2023-05-22T05:14:35.289Z,258.00
2023-05-22T05:15:35.263Z,262.00
2023-05-22T05:16:35.282Z,261.00
2023-05-22T05:17:35.265Z,265.00
2023-05-22T05:18:35.245Z,266.00
2023-05-22T05:19:36.847Z,271.00
2023-05-22T05:20:35.218Z,272.00
2023-05-22T05:21:35.197Z,273.00
2023-05-22T05:22:35.205Z,274.00
2023-05-22T05:23:35.162Z,278.00
2023-05-22T05:24:35.169Z,281.00
2023-05-22T05:25:35.156Z,281.00
2023-05-22T05:26:35.153Z,282.00
2023-05-22T05:27:35.121Z,278.00
2023-05-22T05:28:35.153Z,286.00
2023-05-22T05:29:35.105Z,282.00
2023-05-22T05:30:35.113Z,288.00
2023-05-22T05:31:35.144Z,292.00
2023-05-22T05:32:35.110Z,298.00
2023-05-22T05:33:35.065Z,296.00
2023-05-22T05:34:35.062Z,297.00
2023-05-22T05:35:35.044Z,301.00
2023-05-22T05:36:35.077Z,303.00
2023-05-22T05:37:35.016Z,302.00
2023-05-22T05:38:35.024Z,303.00
2023-05-22T05:39:35.000Z,311.00
2023-05-22T05:40:35.009Z,310.00
2023-05-22T05:41:34.969Z,314.00
2023-05-22T05:42:34.994Z,313.00
2023-05-22T05:43:34.973Z,315.00
2023-05-22T05:44:34.983Z,316.00
2023-05-22T05:45:34.935Z,314.00
2023-05-22T05:46:35.047Z,323.00
2023-05-22T05:47:35.072Z,327.00
2023-05-22T05:48:34.941Z,324.00
2023-05-22T05:49:35.786Z,325.00
2023-05-22T05:50:34.895Z,325.00
2023-05-22T05:51:34.856Z,332.00
2023-05-22T05:52:34.877Z,335.00
2023-05-22T05:53:34.844Z,334.00
2023-05-22T05:54:34.857Z,338.00
2023-05-22T05:55:34.873Z,342.00
2023-05-22T05:56:34.846Z,346.00
2023-05-22T05:57:34.807Z,351.00
2023-05-22T05:58:34.816Z,355.00
2023-05-22T05:59:34.814Z,354.00
2023-05-22T06:00:34.795Z,357.00
2023-05-22T06:01:34.757Z,353.00
2023-05-22T06:02:34.895Z,357.00
2023-05-22T06:03:34.815Z,361.00
2023-05-22T06:04:34.750Z,357.00
2023-05-22T06:05:34.807Z,362.00
2023-05-22T06:06:34.737Z,369.00
2023-05-22T06:07:34.690Z,371.00
2023-05-22T06:08:34.723Z,371.00
2023-05-22T06:09:34.674Z,373.00
2023-05-22T06:10:34.682Z,379.00
2023-05-22T06:11:34.656Z,386.00
2023-05-22T06:12:34.683Z,391.00
2023-05-22T06:13:34.656Z,384.00
2023-05-22T06:14:34.639Z,390.00
2023-05-22T06:15:34.607Z,395.00
2023-05-22T06:16:34.753Z,402.00
2023-05-22T06:17:34.665Z,397.00
2023-05-22T06:18:34.604Z,401.00
2023-05-22T06:19:34.613Z,403.00
2023-05-22T06:20:34.570Z,409.00
2023-05-22T06:21:34.539Z,414.00
2023-05-22T06:22:34.542Z,415.00
2023-05-22T06:23:34.520Z,420.00
2023-05-22T06:24:34.550Z,422.00
2023-05-22T06:25:34.514Z,427.00
2023-05-22T06:26:34.517Z,425.00
2023-05-22T06:27:34.499Z,430.00
2023-05-22T06:28:34.493Z,443.00
2023-05-22T06:29:34.464Z,436.00
2023-05-22T06:30:43.423Z,440.00
2023-05-22T06:31:34.493Z,448.00
2023-05-22T06:32:34.581Z,465.00
2023-05-22T06:33:34.712Z,441.00
2023-05-22T06:34:34.419Z,459.00
2023-05-22T06:35:34.408Z,463.00
2023-05-22T06:36:34.416Z,465.00
2023-05-22T06:37:34.373Z,473.00
2023-05-22T06:38:34.392Z,474.00
2023-05-22T06:39:34.486Z,476.00
2023-05-22T06:40:34.358Z,478.00
2023-05-22T06:41:34.346Z,485.00
2023-05-22T06:42:34.351Z,493.00
2023-05-22T06:43:34.309Z,495.00
2023-05-22T06:44:34.374Z,491.00
2023-05-22T06:45:34.323Z,500.00
2023-05-22T06:46:34.383Z,507.00
2023-05-22T06:47:34.306Z,526.00
2023-05-22T06:48:34.286Z,490.00
2023-05-22T06:49:34.241Z,472.00
2023-05-22T06:50:34.250Z,489.00
2023-05-22T06:51:34.224Z,526.00
2023-05-22T06:52:34.255Z,575.00
2023-05-22T06:53:34.219Z,584.00
2023-05-22T06:54:34.204Z,572.00
2023-05-22T06:55:34.186Z,561.00
2023-05-22T06:56:34.211Z,544.00
2023-05-22T06:57:34.161Z,410.00
2023-05-22T06:58:34.179Z,466.00
2023-05-22T06:59:34.136Z,529.00
2023-05-22T07:00:34.162Z,715.00
2023-05-22T07:01:34.151Z,720.00
2023-05-22T07:02:34.129Z,766.00
2023-05-22T07:03:34.093Z,784.00
2023-05-22T07:04:34.100Z,804.00
2023-05-22T07:05:34.087Z,857.00
2023-05-22T07:06:34.090Z,853.00
2023-05-22T07:07:34.060Z,877.00
2023-05-22T07:08:34.056Z,919.00
2023-05-22T07:09:34.030Z,919.00
2023-05-22T07:10:34.046Z,960.00
2023-05-22T07:11:34.011Z,1013.00
2023-05-22T07:12:34.015Z,1075.00
2023-05-22T07:13:33.998Z,994.00
2023-05-22T07:14:34.011Z,1085.00
2023-05-22T07:15:33.975Z,1115.00
2023-05-22T07:16:34.078Z,1160.00
2023-05-22T07:17:33.953Z,1168.00
2023-05-22T07:18:33.993Z,1162.00
2023-05-22T07:19:34.038Z,1175.00
2023-05-22T07:20:33.941Z,1198.00
2023-05-22T07:21:33.905Z,1262.00
2023-05-22T07:22:33.929Z,1307.00
2023-05-22T07:23:33.890Z,1319.00
2023-05-22T07:24:33.923Z,1343.00
2023-05-22T07:25:33.866Z,1376.00
2023-05-22T07:26:34.599Z,1406.00
2023-05-22T07:27:33.872Z,1431.00
2023-05-22T07:28:33.860Z,1458.00
2023-05-22T07:29:33.838Z,1494.00
2023-05-22T07:30:33.838Z,1541.00
2023-05-22T07:31:33.813Z,1498.00
2023-05-22T07:32:33.885Z,1473.00
2023-05-22T07:33:33.787Z,1521.00
2023-05-22T07:34:33.808Z,1410.00
2023-05-22T07:35:33.754Z,1445.00
2023-05-22T07:36:33.777Z,1640.00
2023-05-22T07:37:33.732Z,1822.00
2023-05-22T07:38:33.727Z,1887.00
2023-05-22T07:39:33.716Z,1790.00
2023-05-22T07:40:33.751Z,1770.00
2023-05-22T07:41:33.709Z,1799.00
2023-05-22T07:42:33.696Z,1867.00
2023-05-22T07:43:33.664Z,1817.00
2023-05-22T07:44:33.685Z,1750.00
2023-05-22T07:45:33.655Z,1766.00
2023-05-22T07:46:33.696Z,1861.00
2023-05-22T07:47:33.636Z,1861.00
2023-05-22T07:48:33.649Z,1911.00
2023-05-22T07:49:33.620Z,1865.00
2023-05-22T07:50:33.612Z,2002.00
2023-05-22T07:51:33.600Z,2083.00
2023-05-22T07:52:33.598Z,2156.00
2023-05-22T07:53:33.563Z,2218.00
2023-05-22T07:54:33.585Z,2581.00
2023-05-22T07:55:33.550Z,2397.00
2023-05-22T07:56:33.561Z,2255.00
2023-05-22T07:57:33.531Z,2340.00
2023-05-22T07:58:33.574Z,2353.00
2023-05-22T07:59:33.497Z,2442.00
2023-05-22T08:00:33.514Z,2476.00
2023-05-22T08:01:33.505Z,2386.00
2023-05-22T08:02:33.632Z,2316.00
2023-05-22T08:03:33.590Z,2420.00
2023-05-22T08:04:33.660Z,2979.00
2023-05-22T08:05:33.445Z,2998.00
2023-05-22T08:06:33.444Z,2631.00
2023-05-22T08:07:33.444Z,2751.00
2023-05-22T08:08:33.436Z,2724.00
2023-05-22T08:09:33.412Z,2867.00
2023-05-22T08:10:46.413Z,3170.00
2023-05-22T08:11:33.386Z,3144.00
2023-05-22T08:12:33.398Z,2787.00
2023-05-22T08:13:33.363Z,2678.00
2023-05-22T08:14:33.380Z,2807.00
2023-05-22T08:15:33.326Z,3359.00
2023-05-22T08:16:33.383Z,3264.00
2023-05-22T08:17:33.413Z,2788.00
2023-05-22T08:18:33.324Z,3752.00
2023-05-22T08:19:33.565Z,4050.00
2023-05-22T08:20:33.357Z,3425.00
2023-05-22T08:21:33.300Z,3340.00
2023-05-22T08:22:33.294Z,3186.00
2023-05-22T08:23:33.262Z,3809.00
2023-05-22T08:24:33.255Z,4265.00
2023-05-22T08:25:33.258Z,4075.00
2023-05-22T08:26:33.378Z,3783.00
2023-05-22T08:27:33.240Z,3876.00
2023-05-22T08:28:33.229Z,3905.00
2023-05-22T08:29:33.191Z,4473.00
2023-05-22T08:30:33.200Z,4977.00
2023-05-22T08:31:33.269Z,4725.00
2023-05-22T08:32:33.245Z,4197.00
2023-05-22T08:33:33.185Z,5123.00
2023-05-22T08:34:33.168Z,5149.00
2023-05-22T08:35:33.130Z,4935.00
2023-05-22T08:36:33.157Z,4960.00
2023-05-22T08:37:33.115Z,4727.00
2023-05-22T08:38:33.147Z,5556.00
2023-05-22T08:39:33.084Z,5522.00
2023-05-22T08:40:33.116Z,5113.00
2023-05-22T08:41:33.085Z,5597.00
2023-05-22T08:42:33.137Z,5435.00
2023-05-22T08:43:33.073Z,5425.00
2023-05-22T08:44:33.086Z,5426.00
2023-05-22T08:45:33.044Z,5141.00
2023-05-22T08:46:33.047Z,4998.00
2023-05-22T08:47:33.122Z,5852.00
2023-05-22T08:48:33.056Z,6156.00
2023-05-22T08:49:32.995Z,5807.00
2023-05-22T08:50:32.990Z,5779.00
2023-05-22T08:51:32.987Z,5587.00
2023-05-22T08:52:33.005Z,5649.00
2023-05-22T08:53:32.972Z,6601.00
2023-05-22T08:54:32.967Z,6002.00
2023-05-22T08:55:32.930Z,5909.00
2023-05-22T08:56:35.230Z,6160.00
2023-05-22T08:57:32.920Z,6411.00
2023-05-22T08:58:32.941Z,6195.00
2023-05-22T08:59:32.891Z,6088.00
2023-05-22T09:00:32.911Z,5981.00
2023-05-22T09:01:32.958Z,5754.00
2023-05-22T09:02:32.915Z,5644.00
2023-05-22T09:03:33.091Z,5716.00
2023-05-22T09:04:32.878Z,5844.00
2023-05-22T09:05:32.834Z,5922.00
2023-05-22T09:06:32.875Z,5577.00
2023-05-22T09:07:32.814Z,5353.00
2023-05-22T09:08:32.834Z,5786.00
2023-05-22T09:09:32.806Z,5789.00
2023-05-22T09:10:32.826Z,5346.00
2023-05-22T09:11:32.800Z,5829.00
2023-05-22T09:12:32.784Z,6066.00
2023-05-22T09:13:32.768Z,6145.00
2023-05-22T09:14:32.789Z,5907.00
2023-05-22T09:15:32.827Z,5590.00
2023-05-22T09:16:32.815Z,5840.00
2023-05-22T09:17:32.756Z,5672.00
2023-05-22T09:18:32.735Z,5581.00
2023-05-22T09:19:32.800Z,5586.00
2023-05-22T09:20:32.725Z,5606.00
2023-05-22T09:21:32.711Z,5300.00
2023-05-22T09:22:32.688Z,5137.00
2023-05-22T09:23:32.662Z,5944.00
2023-05-22T09:24:32.714Z,6955.00
2023-05-22T09:25:32.685Z,6573.00
2023-05-22T09:26:32.658Z,6566.00
2023-05-22T09:27:32.665Z,6626.00
2023-05-22T09:28:32.643Z,6397.00
2023-05-22T09:29:32.639Z,6255.00
2023-05-22T09:30:32.615Z,6210.00
2023-05-22T09:31:32.657Z,5726.00
2023-05-22T09:32:32.634Z,5697.00
2023-05-22T09:33:32.611Z,5523.00
2023-05-22T09:34:32.608Z,5463.00
2023-05-22T09:35:32.594Z,5375.00
2023-05-22T09:36:32.533Z,5226.00
2023-05-22T09:37:32.560Z,5087.00
2023-05-22T09:38:32.534Z,5197.00
2023-05-22T09:39:32.521Z,5603.00
2023-05-22T09:40:32.525Z,5731.00
2023-05-22T09:41:32.502Z,5790.00
2023-05-22T09:42:32.482Z,5512.00
2023-05-22T09:43:32.488Z,5402.00
2023-05-22T09:44:32.460Z,5166.00
2023-05-22T09:45:32.473Z,5120.00
2023-05-22T09:46:32.518Z,4963.00
2023-05-22T09:47:32.454Z,4958.00
2023-05-22T09:48:32.421Z,5017.00
2023-05-22T09:49:32.475Z,4938.00
2023-05-22T09:50:32.398Z,4882.00
2023-05-22T09:51:32.417Z,4903.00
2023-05-22T09:52:32.384Z,4968.00
2023-05-22T09:53:32.403Z,4805.00
2023-05-22T09:54:32.360Z,4781.00
2023-05-22T09:55:32.379Z,4703.00
2023-05-22T09:56:39.125Z,4874.00
2023-05-22T09:57:32.371Z,4776.00
2023-05-22T09:58:32.354Z,4861.00
2023-05-22T09:59:32.349Z,4932.00
2023-05-22T10:00:32.301Z,4894.00
2023-05-22T10:01:32.379Z,4780.00
2023-05-22T10:02:32.333Z,4737.00
2023-05-22T10:03:32.313Z,4780.00
2023-05-22T10:04:32.327Z,5033.00
2023-05-22T10:05:32.303Z,4745.00
2023-05-22T10:06:32.245Z,4695.00
2023-05-22T10:07:32.258Z,4890.00
2023-05-22T10:08:32.252Z,4778.00
2023-05-22T10:09:32.242Z,4839.00
2023-05-22T10:10:32.213Z,4890.00
2023-05-22T10:11:32.246Z,4988.00
2023-05-22T10:12:32.202Z,5076.00
2023-05-22T10:13:32.209Z,4725.00
2023-05-22T10:14:32.181Z,4923.00
2023-05-22T10:15:32.204Z,4896.00
2023-05-22T10:16:32.252Z,5054.00
2023-05-22T10:17:32.172Z,5007.00
2023-05-22T10:18:32.167Z,4991.00
2023-05-22T10:19:32.230Z,4998.00
2023-05-22T10:20:32.128Z,4969.00
2023-05-22T10:21:32.139Z,4926.00
2023-05-22T10:22:32.102Z,4939.00
2023-05-22T10:23:32.135Z,5186.00
2023-05-22T10:24:32.109Z,5116.00
2023-05-22T10:25:32.108Z,5122.00
2023-05-22T10:26:32.069Z,4905.00
2023-05-22T10:27:32.078Z,4815.00
2023-05-22T10:28:32.054Z,4921.00
2023-05-22T10:29:32.075Z,4954.00
2023-05-22T10:30:32.033Z,4996.00
2023-05-22T10:31:32.075Z,5044.00
2023-05-22T10:32:32.032Z,5014.00
2023-05-22T10:33:32.084Z,5125.00
2023-05-22T10:34:32.031Z,5125.00
2023-05-22T10:35:32.011Z,5188.00
2023-05-22T10:36:31.979Z,5098.00
2023-05-22T10:37:31.998Z,5232.00
2023-05-22T10:38:31.956Z,5215.00
2023-05-22T10:39:31.978Z,5315.00
2023-05-22T10:40:32.111Z,5303.00
2023-05-22T10:41:32.050Z,4933.00
2023-05-22T10:42:31.915Z,5305.00
2023-05-22T10:43:31.944Z,5278.00
2023-05-22T10:44:31.910Z,5191.00
2023-05-22T10:45:32.088Z,5137.00
2023-05-22T10:46:31.945Z,5279.00
2023-05-22T10:47:31.909Z,5239.00
2023-05-22T10:48:31.855Z,5141.00
2023-05-22T10:49:31.874Z,5030.00
2023-05-22T10:50:31.854Z,5225.00
2023-05-22T10:51:31.861Z,5259.00
2023-05-22T10:52:31.825Z,5180.00
2023-05-22T10:53:31.853Z,5229.00
2023-05-22T10:54:31.823Z,5124.00
2023-05-22T10:55:31.822Z,5272.00
2023-05-22T10:56:31.810Z,5427.00
2023-05-22T10:57:31.795Z,5212.00
2023-05-22T10:58:31.768Z,5148.00
2023-05-22T10:59:31.774Z,5068.00
2023-05-22T11:00:31.780Z,5338.00
2023-05-22T11:01:31.772Z,5302.00
2023-05-22T11:02:31.868Z,5379.00
2023-05-22T11:03:31.781Z,5339.00
2023-05-22T11:04:31.733Z,5394.00
2023-05-22T11:05:31.754Z,5430.00
2023-05-22T11:06:31.705Z,5185.00
2023-05-22T11:07:31.717Z,5878.00
2023-05-22T11:08:31.680Z,9659.00
2023-05-22T11:09:31.720Z,1185.00
2023-05-22T11:10:31.661Z,675.00
2023-05-22T11:11:31.682Z,1269.00
2023-05-22T11:12:31.653Z,3009.00
2023-05-22T11:13:31.657Z,5583.00
2023-05-22T11:14:31.618Z,5031.00
2023-05-22T11:15:31.640Z,5384.00
2023-05-22T11:16:31.639Z,5436.00
2023-05-22T11:17:31.715Z,5594.00
2023-05-22T11:18:31.581Z,4476.00
2023-05-22T11:19:31.678Z,5257.00
2023-05-22T11:20:31.563Z,5242.00
2023-05-22T11:21:31.573Z,5159.00
2023-05-22T11:22:31.546Z,5115.00
2023-05-22T11:23:31.560Z,5309.00
2023-05-22T11:24:31.536Z,5627.00
2023-05-22T11:25:31.547Z,5448.00
2023-05-22T11:26:31.502Z,5139.00
2023-05-22T11:27:31.529Z,7106.00
2023-05-22T11:28:31.495Z,3679.00
2023-05-22T11:29:31.537Z,5368.00
2023-05-22T11:30:31.466Z,5438.00
2023-05-22T11:31:31.591Z,5679.00
2023-05-22T11:32:31.471Z,5612.00
2023-05-22T11:33:31.472Z,5906.00
2023-05-22T11:34:31.430Z,5132.00
2023-05-22T11:35:31.449Z,11573.00
2023-05-22T11:36:31.421Z,1428.00
2023-05-22T11:37:31.440Z,2531.00
2023-05-22T11:38:31.407Z,3710.00
2023-05-22T11:39:31.415Z,12991.00
2023-05-22T11:40:31.390Z,2348.00
2023-05-22T11:41:33.500Z,6497.00
2023-05-22T11:42:31.383Z,5065.00
2023-05-22T11:43:31.400Z,5464.00
2023-05-22T11:44:31.345Z,5400.00
2023-05-22T11:45:31.349Z,5636.00
2023-05-22T11:46:31.332Z,5365.00
2023-05-22T11:47:31.378Z,5256.00
2023-05-22T11:48:31.304Z,5412.00
2023-05-22T11:49:31.326Z,5361.00
2023-05-22T11:50:41.773Z,11442.00
2023-05-22T11:51:31.355Z,3059.00
2023-05-22T11:52:31.264Z,12454.00
2023-05-22T11:53:31.275Z,4691.00
2023-05-22T11:54:31.248Z,2045.00
2023-05-22T11:55:31.257Z,2206.00
2023-05-22T11:56:31.234Z,2128.00
2023-05-22T11:57:31.243Z,1659.00
2023-05-22T11:58:31.235Z,1378.00
2023-05-22T11:59:31.228Z,1202.00
2023-05-22T12:00:31.405Z,1152.00
2023-05-22T12:01:31.207Z,4530.00
2023-05-22T12:02:31.232Z,3519.00
2023-05-22T12:03:31.348Z,5217.00
2023-05-22T12:04:31.149Z,5349.00
2023-05-22T12:05:31.186Z,5885.00
2023-05-22T12:06:31.193Z,10581.00
2023-05-22T12:07:31.151Z,9379.00
2023-05-22T12:08:31.106Z,5844.00
2023-05-22T12:09:31.143Z,1338.00
2023-05-22T12:10:31.092Z,1495.00
2023-05-22T12:11:31.100Z,3356.00
2023-05-22T12:12:31.090Z,4975.00
2023-05-22T12:13:31.104Z,5811.00
2023-05-22T12:14:31.054Z,7727.00
2023-05-22T12:15:31.083Z,11572.00
2023-05-22T12:16:31.046Z,5906.00
2023-05-22T12:17:31.079Z,1464.00
2023-05-22T12:18:31.029Z,1047.00
2023-05-22T12:19:31.198Z,1863.00
2023-05-22T12:20:30.987Z,3651.00
2023-05-22T12:21:31.004Z,5737.00
2023-05-22T12:22:30.986Z,5800.00
2023-05-22T12:23:30.976Z,5634.00
2023-05-22T12:24:30.961Z,5442.00
2023-05-22T12:25:30.971Z,5537.00
2023-05-22T12:26:30.952Z,5271.00
2023-05-22T12:27:33.029Z,5672.00
2023-05-22T12:28:30.943Z,5500.00
2023-05-22T12:29:30.975Z,6712.00
2023-05-22T12:30:31.003Z,10476.00
2023-05-22T12:31:31.129Z,1782.00
2023-05-22T12:32:31.044Z,1431.00